Terminal Aerodrome Forecast
Issued by NWS Sioux Falls, SD

Home | Current Version | Previous Version | Graphics & Text | Print | Product List | Glossary On
Versions: 1 2 3 4 5 6 7 8 9 10 11 12 13 14
000
FTUS43 KFSD 311147
TAFHON
TAF
KHON 311147Z 3112/0112 19005KT P6SM BKN150
     FM311430 26009KT P6SM SCT150
     FM312000 30008KT P6SM VCTS BKN040CB OVC070
     FM312300 31010KT P6SM BKN070
     FM010300 32005KT P6SM BKN070
      TEMPO 0103/0105 -SHRA
     FM010800 33010KT P6SM BKN120=

USA.gov is the U.S. government's official web portal to all federal, state and local government web resources and services.